sensor_id;sensor_type;location;lat;lon;timestamp;P1;durP1;ratioP1;P2;durP2;ratioP2
1328;SDS011;658;48.820;9.354;2023-09-07T00:01:31;1.20;;;1.10;;
1328;SDS011;658;48.820;9.354;2023-09-07T00:05:32;1.10;;;1.00;;
1328;SDS011;658;48.820;9.354;2023-09-07T00:09:33;0.97;;;0.97;;
1328;SDS011;658;48.820;9.354;2023-09-07T00:13:33;1.20;;;1.20;;
1328;SDS011;658;48.820;9.354;2023-09-07T00:17:34;1.30;;;1.20;;
1328;SDS011;658;48.820;9.354;2023-09-07T00:21:37;0.93;;;0.93;;
1328;SDS011;658;48.820;9.354;2023-09-07T00:25:37;1.00;;;1.00;;
1328;SDS011;658;48.820;9.354;2023-09-07T00:29:38;1.10;;;1.00;;
1328;SDS011;658;48.820;9.354;2023-09-07T00:33:39;1.03;;;1.03;;
1328;SDS011;658;48.820;9.354;2023-09-07T00:37:39;0.90;;;0.90;;
1328;SDS011;658;48.820;9.354;2023-09-07T00:41:40;1.00;;;1.00;;
1328;SDS011;658;48.820;9.354;2023-09-07T00:45:42;0.73;;;0.73;;
1328;SDS011;658;48.820;9.354;2023-09-07T00:49:43;1.03;;;0.93;;
1328;SDS011;658;48.820;9.354;2023-09-07T00:53:47;1.03;;;1.03;;
1328;SDS011;658;48.820;9.354;2023-09-07T00:57:48;0.80;;;0.80;;
1328;SDS011;658;48.820;9.354;2023-09-07T01:01:49;0.90;;;0.90;;
1328;SDS011;658;48.820;9.354;2023-09-07T01:05:58;0.90;;;0.90;;
1328;SDS011;658;48.820;9.354;2023-09-07T01:10:04;1.03;;;1.00;;
1328;SDS011;658;48.820;9.354;2023-09-07T01:14:04;0.83;;;0.80;;
1328;SDS011;658;48.820;9.354;2023-09-07T01:18:05;0.90;;;0.90;;
1328;SDS011;658;48.820;9.354;2023-09-07T01:22:10;0.80;;;0.80;;
1328;SDS011;658;48.820;9.354;2023-09-07T01:26:12;0.70;;;0.70;;
1328;SDS011;658;48.820;9.354;2023-09-07T01:30:13;1.20;;;1.20;;
1328;SDS011;658;48.820;9.354;2023-09-07T01:34:13;1.03;;;1.03;;
1328;SDS011;658;48.820;9.354;2023-09-07T01:38:14;1.20;;;1.00;;
1328;SDS011;658;48.820;9.354;2023-09-07T01:42:15;0.90;;;0.90;;
1328;SDS011;658;48.820;9.354;2023-09-07T01:46:16;0.97;;;0.97;;
1328;SDS011;658;48.820;9.354;2023-09-07T01:50:16;1.07;;;1.07;;
1328;SDS011;658;48.820;9.354;2023-09-07T01:54:17;0.83;;;0.80;;
1328;SDS011;658;48.820;9.354;2023-09-07T01:58:17;0.70;;;0.70;;
1328;SDS011;658;48.820;9.354;2023-09-07T02:02:18;0.70;;;0.70;;
1328;SDS011;658;48.820;9.354;2023-09-07T02:06:19;1.10;;;1.10;;
1328;SDS011;658;48.820;9.354;2023-09-07T02:10:22;0.90;;;0.90;;
1328;SDS011;658;48.820;9.354;2023-09-07T02:14:25;0.90;;;0.90;;
1328;SDS011;658;48.820;9.354;2023-09-07T02:18:25;0.83;;;0.83;;
1328;SDS011;658;48.820;9.354;2023-09-07T02:22:26;0.60;;;0.60;;
1328;SDS011;658;48.820;9.354;2023-09-07T02:26:29;1.00;;;1.00;;
1328;SDS011;658;48.820;9.354;2023-09-07T02:30:29;1.00;;;1.00;;
1328;SDS011;658;48.820;9.354;2023-09-07T02:34:31;0.90;;;0.90;;
1328;SDS011;658;48.820;9.354;2023-09-07T02:38:32;1.00;;;1.00;;
1328;SDS011;658;48.820;9.354;2023-09-07T02:42:32;0.73;;;0.73;;
1328;SDS011;658;48.820;9.354;2023-09-07T02:46:35;0.90;;;0.90;;
1328;SDS011;658;48.820;9.354;2023-09-07T02:50:38;0.80;;;0.80;;
1328;SDS011;658;48.820;9.354;2023-09-07T02:54:39;0.90;;;0.90;;
1328;SDS011;658;48.820;9.354;2023-09-07T02:58:41;0.80;;;0.80;;
1328;SDS011;658;48.820;9.354;2023-09-07T03:02:42;0.77;;;0.77;;
1328;SDS011;658;48.820;9.354;2023-09-07T03:06:43;0.93;;;0.93;;
1328;SDS011;658;48.820;9.354;2023-09-07T03:10:44;0.90;;;0.90;;
1328;SDS011;658;48.820;9.354;2023-09-07T03:14:44;0.70;;;0.70;;
1328;SDS011;658;48.820;9.354;2023-09-07T03:18:46;1.00;;;1.00;;
1328;SDS011;658;48.820;9.354;2023-09-07T03:22:47;1.00;;;1.00;;
1328;SDS011;658;48.820;9.354;2023-09-07T03:26:50;0.80;;;0.80;;
1328;SDS011;658;48.820;9.354;2023-09-07T03:30:51;0.60;;;0.60;;
1328;SDS011;658;48.820;9.354;2023-09-07T03:34:54;0.83;;;0.83;;
1328;SDS011;658;48.820;9.354;2023-09-07T03:38:57;1.00;;;1.00;;
1328;SDS011;658;48.820;9.354;2023-09-07T03:42:57;0.80;;;0.80;;
1328;SDS011;658;48.820;9.354;2023-09-07T03:46:58;0.87;;;0.87;;
1328;SDS011;658;48.820;9.354;2023-09-07T03:51:00;1.17;;;0.90;;
1328;SDS011;658;48.820;9.354;2023-09-07T03:55:01;0.80;;;0.80;;
1328;SDS011;658;48.820;9.354;2023-09-07T03:59:04;0.80;;;0.80;;
1328;SDS011;658;48.820;9.354;2023-09-07T04:03:04;0.70;;;0.70;;
1328;SDS011;658;48.820;9.354;2023-09-07T04:07:05;0.83;;;0.83;;
1328;SDS011;658;48.820;9.354;2023-09-07T04:11:06;0.80;;;0.80;;
1328;SDS011;658;48.820;9.354;2023-09-07T04:15:09;0.90;;;0.90;;
1328;SDS011;658;48.820;9.354;2023-09-07T04:19:10;0.73;;;0.73;;
1328;SDS011;658;48.820;9.354;2023-09-07T04:23:10;0.83;;;0.83;;
1328;SDS011;658;48.820;9.354;2023-09-07T04:27:11;0.90;;;0.90;;
1328;SDS011;658;48.820;9.354;2023-09-07T04:31:12;0.80;;;0.80;;
1328;SDS011;658;48.820;9.354;2023-09-07T04:35:14;0.90;;;0.90;;
1328;SDS011;658;48.820;9.354;2023-09-07T04:39:15;0.80;;;0.80;;
1328;SDS011;658;48.820;9.354;2023-09-07T04:43:16;0.80;;;0.80;;
1328;SDS011;658;48.820;9.354;2023-09-07T04:47:16;0.97;;;0.97;;
1328;SDS011;658;48.820;9.354;2023-09-07T04:51:17;1.07;;;1.07;;
1328;SDS011;658;48.820;9.354;2023-09-07T04:55:23;0.90;;;0.90;;
1328;SDS011;658;48.820;9.354;2023-09-07T04:59:24;1.00;;;1.00;;
1328;SDS011;658;48.820;9.354;2023-09-07T05:03:27;0.80;;;0.80;;
1328;SDS011;658;48.820;9.354;2023-09-07T05:07:27;0.80;;;0.80;;
1328;SDS011;658;48.820;9.354;2023-09-07T05:11:28;0.90;;;0.90;;
1328;SDS011;658;48.820;9.354;2023-09-07T05:15:28;0.70;;;0.70;;
1328;SDS011;658;48.820;9.354;2023-09-07T05:19:29;0.73;;;0.73;;
1328;SDS011;658;48.820;9.354;2023-09-07T05:23:30;0.87;;;0.87;;
1328;SDS011;658;48.820;9.354;2023-09-07T05:27:30;0.90;;;0.90;;
1328;SDS011;658;48.820;9.354;2023-09-07T05:31:31;0.90;;;0.90;;
1328;SDS011;658;48.820;9.354;2023-09-07T05:35:31;0.97;;;0.97;;
1328;SDS011;658;48.820;9.354;2023-09-07T05:39:32;1.00;;;1.00;;
1328;SDS011;658;48.820;9.354;2023-09-07T05:43:35;0.97;;;0.97;;
1328;SDS011;658;48.820;9.354;2023-09-07T05:47:35;1.10;;;1.10;;
1328;SDS011;658;48.820;9.354;2023-09-07T05:51:36;0.90;;;0.90;;
1328;SDS011;658;48.820;9.354;2023-09-07T05:55:39;0.80;;;0.80;;
1328;SDS011;658;48.820;9.354;2023-09-07T05:59:39;0.90;;;0.90;;
1328;SDS011;658;48.820;9.354;2023-09-07T06:03:40;0.80;;;0.80;;
1328;SDS011;658;48.820;9.354;2023-09-07T06:07:41;0.90;;;0.90;;
1328;SDS011;658;48.820;9.354;2023-09-07T06:11:44;1.27;;;1.20;;
1328;SDS011;658;48.820;9.354;2023-09-07T06:15:47;1.20;;;1.10;;
1328;SDS011;658;48.820;9.354;2023-09-07T06:19:53;1.20;;;1.20;;
1328;SDS011;658;48.820;9.354;2023-09-07T06:23:57;1.07;;;0.97;;
1328;SDS011;658;48.820;9.354;2023-09-07T06:27:57;0.80;;;0.80;;
1328;SDS011;658;48.820;9.354;2023-09-07T06:31:58;1.30;;;1.30;;
1328;SDS011;658;48.820;9.354;2023-09-07T06:35:59;1.03;;;1.03;;
1328;SDS011;658;48.820;9.354;2023-09-07T06:40:02;1.00;;;1.00;;
1328;SDS011;658;48.820;9.354;2023-09-07T06:44:03;1.17;;;1.13;;
1328;SDS011;658;48.820;9.354;2023-09-07T06:48:04;1.17;;;1.17;;
1328;SDS011;658;48.820;9.354;2023-09-07T06:52:05;1.13;;;1.10;;
1328;SDS011;658;48.820;9.354;2023-09-07T06:56:05;1.10;;;1.07;;
1328;SDS011;658;48.820;9.354;2023-09-07T07:00:06;1.10;;;1.10;;
1328;SDS011;658;48.820;9.354;2023-09-07T07:04:07;1.23;;;1.13;;
1328;SDS011;658;48.820;9.354;2023-09-07T07:08:09;1.30;;;1.20;;
1328;SDS011;658;48.820;9.354;2023-09-07T07:12:12;1.43;;;1.30;;
1328;SDS011;658;48.820;9.354;2023-09-07T07:16:16;1.13;;;1.03;;
1328;SDS011;658;48.820;9.354;2023-09-07T07:20:17;1.03;;;1.03;;
1328;SDS011;658;48.820;9.354;2023-09-07T07:24:17;1.10;;;1.10;;
1328;SDS011;658;48.820;9.354;2023-09-07T07:28:18;1.30;;;1.20;;
1328;SDS011;658;48.820;9.354;2023-09-07T07:32:19;1.20;;;1.20;;
1328;SDS011;658;48.820;9.354;2023-09-07T07:36:19;1.20;;;1.10;;
1328;SDS011;658;48.820;9.354;2023-09-07T07:40:20;1.10;;;1.10;;
1328;SDS011;658;48.820;9.354;2023-09-07T07:44:21;1.30;;;1.20;;
1328;SDS011;658;48.820;9.354;2023-09-07T07:48:24;1.40;;;1.30;;
1328;SDS011;658;48.820;9.354;2023-09-07T07:52:27;1.20;;;1.20;;
1328;SDS011;658;48.820;9.354;2023-09-07T07:56:31;1.50;;;1.40;;
1328;SDS011;658;48.820;9.354;2023-09-07T08:00:31;1.40;;;1.30;;
1328;SDS011;658;48.820;9.354;2023-09-07T08:04:32;1.03;;;1.03;;
1328;SDS011;658;48.820;9.354;2023-09-07T08:08:34;1.37;;;1.30;;
1328;SDS011;658;48.820;9.354;2023-09-07T08:12:35;1.60;;;1.50;;
1328;SDS011;658;48.820;9.354;2023-09-07T08:16:35;1.43;;;1.33;;
1328;SDS011;658;48.820;9.354;2023-09-07T08:20:36;1.33;;;1.23;;
1328;SDS011;658;48.820;9.354;2023-09-07T08:24:40;1.80;;;1.70;;
1328;SDS011;658;48.820;9.354;2023-09-07T08:28:42;1.43;;;1.33;;
1328;SDS011;658;48.820;9.354;2023-09-07T08:32:46;1.50;;;1.40;;
1328;SDS011;658;48.820;9.354;2023-09-07T08:36:51;1.70;;;1.60;;
1328;SDS011;658;48.820;9.354;2023-09-07T08:40:54;1.30;;;1.30;;
1328;SDS011;658;48.820;9.354;2023-09-07T08:44:57;1.47;;;1.37;;
1328;SDS011;658;48.820;9.354;2023-09-07T08:49:03;2.10;;;2.00;;
1328;SDS011;658;48.820;9.354;2023-09-07T08:53:04;1.80;;;1.70;;
1328;SDS011;658;48.820;9.354;2023-09-07T08:57:05;1.33;;;1.27;;
1328;SDS011;658;48.820;9.354;2023-09-07T09:01:09;1.23;;;1.23;;
1328;SDS011;658;48.820;9.354;2023-09-07T09:05:09;1.77;;;1.67;;
1328;SDS011;658;48.820;9.354;2023-09-07T09:09:10;1.60;;;1.50;;
1328;SDS011;658;48.820;9.354;2023-09-07T09:13:32;1.87;;;1.77;;
1328;SDS011;658;48.820;9.354;2023-09-07T09:17:33;1.80;;;1.70;;
1328;SDS011;658;48.820;9.354;2023-09-07T09:21:34;1.83;;;1.73;;
1328;SDS011;658;48.820;9.354;2023-09-07T09:25:35;1.70;;;1.60;;
1328;SDS011;658;48.820;9.354;2023-09-07T09:29:35;1.70;;;1.60;;
1328;SDS011;658;48.820;9.354;2023-09-07T09:33:39;1.60;;;1.50;;
1328;SDS011;658;48.820;9.354;2023-09-07T09:37:43;2.10;;;2.00;;
1328;SDS011;658;48.820;9.354;2023-09-07T09:41:45;1.90;;;1.80;;
1328;SDS011;658;48.820;9.354;2023-09-07T09:45:46;1.70;;;1.60;;
1328;SDS011;658;48.820;9.354;2023-09-07T09:49:47;1.60;;;1.50;;
1328;SDS011;658;48.820;9.354;2023-09-07T09:53:50;1.70;;;1.60;;
1328;SDS011;658;48.820;9.354;2023-09-07T09:57:51;1.70;;;1.60;;
1328;SDS011;658;48.820;9.354;2023-09-07T10:01:54;1.80;;;1.70;;
1328;SDS011;658;48.820;9.354;2023-09-07T10:06:09;2.00;;;1.90;;
1328;SDS011;658;48.820;9.354;2023-09-07T10:10:14;2.00;;;1.90;;
1328;SDS011;658;48.820;9.354;2023-09-07T10:14:15;1.83;;;1.73;;
1328;SDS011;658;48.820;9.354;2023-09-07T10:18:16;1.80;;;1.70;;
1328;SDS011;658;48.820;9.354;2023-09-07T10:22:23;1.80;;;1.70;;
1328;SDS011;658;48.820;9.354;2023-09-07T10:26:24;1.80;;;1.70;;
1328;SDS011;658;48.820;9.354;2023-09-07T10:30:24;1.90;;;1.80;;
1328;SDS011;658;48.820;9.354;2023-09-07T10:34:35;1.90;;;1.80;;
1328;SDS011;658;48.820;9.354;2023-09-07T10:38:39;2.20;;;2.10;;
1328;SDS011;658;48.820;9.354;2023-09-07T10:42:40;2.13;;;2.03;;
1328;SDS011;658;48.820;9.354;2023-09-07T10:46:41;1.97;;;1.87;;
1328;SDS011;658;48.820;9.354;2023-09-07T10:50:44;2.53;;;2.33;;
1328;SDS011;658;48.820;9.354;2023-09-07T10:54:48;1.97;;;1.87;;
1328;SDS011;658;48.820;9.354;2023-09-07T10:58:56;1.90;;;1.80;;
1328;SDS011;658;48.820;9.354;2023-09-07T11:02:57;1.80;;;1.70;;
1328;SDS011;658;48.820;9.354;2023-09-07T11:06:57;2.43;;;2.33;;
1328;SDS011;658;48.820;9.354;2023-09-07T11:11:02;2.00;;;1.90;;
1328;SDS011;658;48.820;9.354;2023-09-07T11:15:03;2.10;;;2.00;;
1328;SDS011;658;48.820;9.354;2023-09-07T11:19:07;2.20;;;2.10;;
1328;SDS011;658;48.820;9.354;2023-09-07T11:23:08;2.30;;;2.20;;
1328;SDS011;658;48.820;9.354;2023-09-07T11:27:08;2.47;;;2.37;;
1328;SDS011;658;48.820;9.354;2023-09-07T11:31:09;2.10;;;2.00;;
1328;SDS011;658;48.820;9.354;2023-09-07T11:35:10;2.50;;;2.40;;
1328;SDS011;658;48.820;9.354;2023-09-07T11:39:10;2.47;;;2.30;;
1328;SDS011;658;48.820;9.354;2023-09-07T11:43:15;2.70;;;2.60;;
1328;SDS011;658;48.820;9.354;2023-09-07T11:47:16;2.83;;;2.63;;
1328;SDS011;658;48.820;9.354;2023-09-07T11:51:17;2.70;;;2.50;;
1328;SDS011;658;48.820;9.354;2023-09-07T11:55:17;2.60;;;2.40;;
1328;SDS011;658;48.820;9.354;2023-09-07T11:59:19;2.83;;;2.63;;
1328;SDS011;658;48.820;9.354;2023-09-07T12:03:19;2.43;;;2.33;;
1328;SDS011;658;48.820;9.354;2023-09-07T12:07:20;2.53;;;2.43;;
1328;SDS011;658;48.820;9.354;2023-09-07T12:11:21;2.53;;;2.43;;
1328;SDS011;658;48.820;9.354;2023-09-07T12:15:21;2.70;;;2.50;;
1328;SDS011;658;48.820;9.354;2023-09-07T12:19:22;2.30;;;2.20;;
1328;SDS011;658;48.820;9.354;2023-09-07T12:23:22;2.33;;;2.23;;
1328;SDS011;658;48.820;9.354;2023-09-07T12:27:23;2.53;;;2.33;;
1328;SDS011;658;48.820;9.354;2023-09-07T12:31:25;2.53;;;2.33;;
1328;SDS011;658;48.820;9.354;2023-09-07T12:35:25;2.23;;;2.13;;
1328;SDS011;658;48.820;9.354;2023-09-07T12:39:28;2.30;;;2.20;;
1328;SDS011;658;48.820;9.354;2023-09-07T12:43:32;2.60;;;2.50;;
1328;SDS011;658;48.820;9.354;2023-09-07T12:47:33;2.30;;;2.20;;
1328;SDS011;658;48.820;9.354;2023-09-07T12:51:34;2.53;;;2.43;;
1328;SDS011;658;48.820;9.354;2023-09-07T12:55:35;2.43;;;2.33;;
1328;SDS011;658;48.820;9.354;2023-09-07T12:59:36;2.30;;;2.20;;
1328;SDS011;658;48.820;9.354;2023-09-07T13:03:37;2.40;;;2.30;;
1328;SDS011;658;48.820;9.354;2023-09-07T13:07:38;1.93;;;1.83;;
1328;SDS011;658;48.820;9.354;2023-09-07T13:11:43;2.23;;;2.13;;
1328;SDS011;658;48.820;9.354;2023-09-07T13:15:44;2.30;;;2.20;;
1328;SDS011;658;48.820;9.354;2023-09-07T13:19:47;2.60;;;2.47;;
1328;SDS011;658;48.820;9.354;2023-09-07T13:23:50;1.93;;;1.83;;
1328;SDS011;658;48.820;9.354;2023-09-07T13:27:50;2.47;;;2.27;;
1328;SDS011;658;48.820;9.354;2023-09-07T13:31:51;2.60;;;2.47;;
1328;SDS011;658;48.820;9.354;2023-09-07T13:35:53;2.50;;;2.40;;
1328;SDS011;658;48.820;9.354;2023-09-07T13:39:54;2.37;;;2.27;;
1328;SDS011;658;48.820;9.354;2023-09-07T13:43:57;2.23;;;2.13;;
1328;SDS011;658;48.820;9.354;2023-09-07T13:47:59;2.33;;;2.23;;
1328;SDS011;658;48.820;9.354;2023-09-07T13:52:02;2.40;;;2.30;;
1328;SDS011;658;48.820;9.354;2023-09-07T13:56:03;2.63;;;2.53;;
1328;SDS011;658;48.820;9.354;2023-09-07T14:00:04;2.87;;;2.70;;
1328;SDS011;658;48.820;9.354;2023-09-07T14:04:06;2.20;;;2.10;;
1328;SDS011;658;48.820;9.354;2023-09-07T14:08:06;2.57;;;2.40;;
1328;SDS011;658;48.820;9.354;2023-09-07T14:12:07;2.30;;;2.17;;
1328;SDS011;658;48.820;9.354;2023-09-07T14:16:08;2.20;;;2.10;;
1328;SDS011;658;48.820;9.354;2023-09-07T14:20:10;2.70;;;2.60;;
1328;SDS011;658;48.820;9.354;2023-09-07T14:24:11;2.40;;;2.30;;
1328;SDS011;658;48.820;9.354;2023-09-07T14:28:12;2.50;;;2.40;;
1328;SDS011;658;48.820;9.354;2023-09-07T14:32:16;1.90;;;1.80;;
1328;SDS011;658;48.820;9.354;2023-09-07T14:36:17;2.40;;;2.30;;
1328;SDS011;658;48.820;9.354;2023-09-07T14:40:17;2.50;;;2.40;;
1328;SDS011;658;48.820;9.354;2023-09-07T14:44:19;2.60;;;2.50;;
1328;SDS011;658;48.820;9.354;2023-09-07T14:48:20;2.63;;;2.43;;
1328;SDS011;658;48.820;9.354;2023-09-07T14:52:23;2.73;;;2.60;;
1328;SDS011;658;48.820;9.354;2023-09-07T14:56:24;2.67;;;2.50;;
1328;SDS011;658;48.820;9.354;2023-09-07T15:00:26;2.00;;;1.90;;
1328;SDS011;658;48.820;9.354;2023-09-07T15:04:32;2.47;;;2.37;;
1328;SDS011;658;48.820;9.354;2023-09-07T15:08:33;2.20;;;2.10;;
1328;SDS011;658;48.820;9.354;2023-09-07T15:12:34;2.40;;;2.27;;
1328;SDS011;658;48.820;9.354;2023-09-07T15:16:34;3.00;;;2.80;;
1328;SDS011;658;48.820;9.354;2023-09-07T15:20:37;2.30;;;2.20;;
1328;SDS011;658;48.820;9.354;2023-09-07T15:24:37;2.10;;;2.00;;
1328;SDS011;658;48.820;9.354;2023-09-07T15:28:41;2.60;;;2.50;;
1328;SDS011;658;48.820;9.354;2023-09-07T15:32:42;2.23;;;2.13;;
1328;SDS011;658;48.820;9.354;2023-09-07T15:36:43;2.27;;;2.17;;
1328;SDS011;658;48.820;9.354;2023-09-07T15:40:43;2.53;;;2.43;;
1328;SDS011;658;48.820;9.354;2023-09-07T15:44:48;2.33;;;2.23;;
1328;SDS011;658;48.820;9.354;2023-09-07T15:48:52;2.20;;;2.10;;
1328;SDS011;658;48.820;9.354;2023-09-07T15:52:53;2.37;;;2.27;;
1328;SDS011;658;48.820;9.354;2023-09-07T15:56:53;2.67;;;2.50;;
1328;SDS011;658;48.820;9.354;2023-09-07T16:00:56;2.10;;;2.00;;
1328;SDS011;658;48.820;9.354;2023-09-07T16:04:58;2.50;;;2.40;;
1328;SDS011;658;48.820;9.354;2023-09-07T16:08:59;2.47;;;2.30;;
1328;SDS011;658;48.820;9.354;2023-09-07T16:13:00;2.20;;;2.10;;
1328;SDS011;658;48.820;9.354;2023-09-07T16:17:00;1.90;;;1.80;;
1328;SDS011;658;48.820;9.354;2023-09-07T16:21:05;2.70;;;2.50;;
1328;SDS011;658;48.820;9.354;2023-09-07T16:25:09;2.30;;;2.20;;
1328;SDS011;658;48.820;9.354;2023-09-07T16:29:10;2.30;;;2.20;;
1328;SDS011;658;48.820;9.354;2023-09-07T16:33:10;2.80;;;2.60;;
1328;SDS011;658;48.820;9.354;2023-09-07T16:37:11;2.17;;;2.07;;
1328;SDS011;658;48.820;9.354;2023-09-07T16:41:12;2.47;;;2.37;;
1328;SDS011;658;48.820;9.354;2023-09-07T16:45:15;1.60;;;1.50;;
1328;SDS011;658;48.820;9.354;2023-09-07T16:49:17;2.17;;;2.07;;
1328;SDS011;658;48.820;9.354;2023-09-07T16:53:18;1.70;;;1.60;;
1328;SDS011;658;48.820;9.354;2023-09-07T16:57:19;1.87;;;1.77;;
1328;SDS011;658;48.820;9.354;2023-09-07T17:01:19;2.00;;;1.90;;
1328;SDS011;658;48.820;9.354;2023-09-07T17:05:20;2.17;;;2.07;;
1328;SDS011;658;48.820;9.354;2023-09-07T17:09:23;1.77;;;1.67;;
1328;SDS011;658;48.820;9.354;2023-09-07T17:13:23;2.00;;;1.90;;
1328;SDS011;658;48.820;9.354;2023-09-07T17:17:24;2.03;;;1.93;;
1328;SDS011;658;48.820;9.354;2023-09-07T17:21:25;1.87;;;1.77;;
1328;SDS011;658;48.820;9.354;2023-09-07T17:25:28;2.10;;;2.00;;
1328;SDS011;658;48.820;9.354;2023-09-07T17:29:34;1.90;;;1.80;;
1328;SDS011;658;48.820;9.354;2023-09-07T17:33:34;1.90;;;1.80;;
1328;SDS011;658;48.820;9.354;2023-09-07T17:37:35;2.17;;;2.07;;
1328;SDS011;658;48.820;9.354;2023-09-07T17:41:36;1.70;;;1.60;;
1328;SDS011;658;48.820;9.354;2023-09-07T17:45:38;2.00;;;1.90;;
1328;SDS011;658;48.820;9.354;2023-09-07T17:49:38;1.90;;;1.80;;
1328;SDS011;658;48.820;9.354;2023-09-07T17:53:39;1.73;;;1.63;;
1328;SDS011;658;48.820;9.354;2023-09-07T17:57:40;1.80;;;1.70;;
1328;SDS011;658;48.820;9.354;2023-09-07T18:01:40;1.80;;;1.70;;
1328;SDS011;658;48.820;9.354;2023-09-07T18:05:43;2.13;;;2.03;;
1328;SDS011;658;48.820;9.354;2023-09-07T18:09:43;2.07;;;1.97;;
1328;SDS011;658;48.820;9.354;2023-09-07T18:13:45;1.87;;;1.77;;
1328;SDS011;658;48.820;9.354;2023-09-07T18:17:46;1.77;;;1.67;;
1328;SDS011;658;48.820;9.354;2023-09-07T18:21:46;2.00;;;1.90;;
1328;SDS011;658;48.820;9.354;2023-09-07T18:25:49;1.87;;;1.77;;
1328;SDS011;658;48.820;9.354;2023-09-07T18:29:50;2.17;;;2.07;;
1328;SDS011;658;48.820;9.354;2023-09-07T18:33:51;2.00;;;1.90;;
1328;SDS011;658;48.820;9.354;2023-09-07T18:37:54;2.10;;;2.00;;
1328;SDS011;658;48.820;9.354;2023-09-07T18:41:54;1.90;;;1.80;;
1328;SDS011;658;48.820;9.354;2023-09-07T18:45:55;2.10;;;2.00;;
1328;SDS011;658;48.820;9.354;2023-09-07T18:49:57;2.03;;;1.93;;
1328;SDS011;658;48.820;9.354;2023-09-07T18:53:57;2.00;;;1.90;;
1328;SDS011;658;48.820;9.354;2023-09-07T18:57:58;2.13;;;2.03;;
1328;SDS011;658;48.820;9.354;2023-09-07T19:02:02;2.03;;;1.93;;
1328;SDS011;658;48.820;9.354;2023-09-07T19:06:03;1.90;;;1.80;;
1328;SDS011;658;48.820;9.354;2023-09-07T19:10:03;2.10;;;2.00;;
1328;SDS011;658;48.820;9.354;2023-09-07T19:14:05;2.10;;;2.00;;
1328;SDS011;658;48.820;9.354;2023-09-07T19:18:05;2.13;;;2.03;;
1328;SDS011;658;48.820;9.354;2023-09-07T19:22:06;2.13;;;2.03;;
1328;SDS011;658;48.820;9.354;2023-09-07T19:26:26;2.30;;;2.20;;
1328;SDS011;658;48.820;9.354;2023-09-07T19:30:28;2.07;;;1.97;;
1328;SDS011;658;48.820;9.354;2023-09-07T19:34:28;2.30;;;2.20;;
1328;SDS011;658;48.820;9.354;2023-09-07T19:38:32;1.93;;;1.83;;
1328;SDS011;658;48.820;9.354;2023-09-07T19:42:32;2.13;;;2.03;;
1328;SDS011;658;48.820;9.354;2023-09-07T19:46:35;1.93;;;1.83;;
1328;SDS011;658;48.820;9.354;2023-09-07T19:50:36;2.00;;;1.90;;
1328;SDS011;658;48.820;9.354;2023-09-07T19:54:36;2.50;;;2.30;;
1328;SDS011;658;48.820;9.354;2023-09-07T19:58:39;2.00;;;1.90;;
1328;SDS011;658;48.820;9.354;2023-09-07T20:02:40;2.23;;;2.13;;
1328;SDS011;658;48.820;9.354;2023-09-07T20:06:41;2.10;;;2.00;;
1328;SDS011;658;48.820;9.354;2023-09-07T20:10:41;2.00;;;1.90;;
1328;SDS011;658;48.820;9.354;2023-09-07T20:14:42;2.20;;;2.00;;
1328;SDS011;658;48.820;9.354;2023-09-07T20:18:43;2.20;;;2.10;;
1328;SDS011;658;48.820;9.354;2023-09-07T20:22:46;1.87;;;1.77;;
1328;SDS011;658;48.820;9.354;2023-09-07T20:26:47;2.53;;;2.43;;
1328;SDS011;658;48.820;9.354;2023-09-07T20:30:47;2.10;;;2.00;;
1328;SDS011;658;48.820;9.354;2023-09-07T20:34:48;2.40;;;2.20;;
1328;SDS011;658;48.820;9.354;2023-09-07T20:38:49;2.00;;;1.90;;
1328;SDS011;658;48.820;9.354;2023-09-07T20:42:50;1.90;;;1.80;;
1328;SDS011;658;48.820;9.354;2023-09-07T20:46:50;2.00;;;1.90;;
1328;SDS011;658;48.820;9.354;2023-09-07T20:50:51;2.70;;;2.50;;
1328;SDS011;658;48.820;9.354;2023-09-07T20:54:54;2.40;;;2.30;;
1328;SDS011;658;48.820;9.354;2023-09-07T20:58:55;2.30;;;2.20;;
1328;SDS011;658;48.820;9.354;2023-09-07T21:02:56;2.03;;;1.93;;
1328;SDS011;658;48.820;9.354;2023-09-07T21:06:56;2.07;;;1.97;;
1328;SDS011;658;48.820;9.354;2023-09-07T21:10:57;2.13;;;2.03;;
1328;SDS011;658;48.820;9.354;2023-09-07T21:14:58;2.10;;;2.00;;
1328;SDS011;658;48.820;9.354;2023-09-07T21:18:58;2.67;;;2.50;;
1328;SDS011;658;48.820;9.354;2023-09-07T21:22:59;2.40;;;2.20;;
1328;SDS011;658;48.820;9.354;2023-09-07T21:27:02;2.20;;;2.10;;
1328;SDS011;658;48.820;9.354;2023-09-07T21:31:03;2.20;;;2.10;;
1328;SDS011;658;48.820;9.354;2023-09-07T21:35:05;2.17;;;2.07;;
1328;SDS011;658;48.820;9.354;2023-09-07T21:39:06;2.30;;;2.20;;
1328;SDS011;658;48.820;9.354;2023-09-07T21:43:07;2.57;;;2.37;;
1328;SDS011;658;48.820;9.354;2023-09-07T21:47:08;2.10;;;2.00;;
1328;SDS011;658;48.820;9.354;2023-09-07T21:51:11;2.27;;;2.17;;
1328;SDS011;658;48.820;9.354;2023-09-07T21:55:14;1.97;;;1.87;;
1328;SDS011;658;48.820;9.354;2023-09-07T21:59:17;1.97;;;1.87;;
1328;SDS011;658;48.820;9.354;2023-09-07T22:03:18;2.13;;;2.03;;
1328;SDS011;658;48.820;9.354;2023-09-07T22:07:18;2.40;;;2.30;;
1328;SDS011;658;48.820;9.354;2023-09-07T22:11:19;1.90;;;1.80;;
1328;SDS011;658;48.820;9.354;2023-09-07T22:15:20;2.60;;;2.40;;
1328;SDS011;658;48.820;9.354;2023-09-07T22:19:20;2.37;;;2.20;;
1328;SDS011;658;48.820;9.354;2023-09-07T22:23:21;2.63;;;2.43;;
1328;SDS011;658;48.820;9.354;2023-09-07T22:27:22;1.90;;;1.80;;
1328;SDS011;658;48.820;9.354;2023-09-07T22:31:22;1.90;;;1.80;;
1328;SDS011;658;48.820;9.354;2023-09-07T22:35:23;2.27;;;2.17;;
1328;SDS011;658;48.820;9.354;2023-09-07T22:39:24;2.67;;;2.47;;
1328;SDS011;658;48.820;9.354;2023-09-07T22:43:27;1.90;;;1.80;;
1328;SDS011;658;48.820;9.354;2023-09-07T22:47:27;2.00;;;1.90;;
1328;SDS011;658;48.820;9.354;2023-09-07T22:51:28;2.20;;;2.10;;
1328;SDS011;658;48.820;9.354;2023-09-07T22:55:45;2.00;;;1.90;;
1328;SDS011;658;48.820;9.354;2023-09-07T22:59:46;2.00;;;1.90;;
1328;SDS011;658;48.820;9.354;2023-09-07T23:03:47;1.90;;;1.80;;
1328;SDS011;658;48.820;9.354;2023-09-07T23:07:47;2.00;;;1.90;;
1328;SDS011;658;48.820;9.354;2023-09-07T23:11:48;2.50;;;2.40;;
1328;SDS011;658;48.820;9.354;2023-09-07T23:15:49;1.70;;;1.60;;
1328;SDS011;658;48.820;9.354;2023-09-07T23:19:52;2.10;;;2.00;;
1328;SDS011;658;48.820;9.354;2023-09-07T23:23:53;1.90;;;1.80;;
1328;SDS011;658;48.820;9.354;2023-09-07T23:27:53;1.90;;;1.80;;
1328;SDS011;658;48.820;9.354;2023-09-07T23:31:57;2.23;;;2.13;;
1328;SDS011;658;48.820;9.354;2023-09-07T23:35:57;2.03;;;1.93;;
1328;SDS011;658;48.820;9.354;2023-09-07T23:39:58;2.13;;;2.00;;
1328;SDS011;658;48.820;9.354;2023-09-07T23:43:59;2.10;;;2.00;;
1328;SDS011;658;48.820;9.354;2023-09-07T23:48:00;2.00;;;1.90;;
1328;SDS011;658;48.820;9.354;2023-09-07T23:52:00;1.90;;;1.80;;
1328;SDS011;658;48.820;9.354;2023-09-07T23:56:03;2.23;;;2.13;;
